ESMS

Malmö Sturup Airport

Malmö, Sweden
METAR ESMS 170550Z 36007KT 340V040 9999 OVC006 M01/M02 Q1013 R17/19//95
Observed Flight Rules
Dec-17 @ 05:50 UTC (22 minutes ago) Instrument Flight Rules
Wind Visibility Clouds
360° at 7 knots 10,000+ meters
  • Overcast at 600' AGL
Temperatures Readings
Current -1°C / 30°F
Dewpoint -2°C / 28°F
Humidity 93%
Altimeter 29.91" Hg
Pressure 1013 hPa
Elevation 106
METAR ESMS 170550Z 36007KT 340V040 9999 OVC006 M01/M02 Q1013 R17/19//95
Observed Flight Rules
Dec-17 @ 05:50 UTC
(22 minutes ago)
IFR
Wind Visibility
360° at 7 knots 10,000+ meters
Clouds
  • Overcast at 600' AGL
Temperature Dewpoint
-1°C / 30°F -2°C / 28°F
Humidity Altimeter Pressure
93% 29.91" Hg 1013 hPa